sensor_id;sensor_type;location;lat;lon;timestamp;temperature;humidity
3919;DHT22;1974;48.670;8.994;2023-04-24T00:01:01;10.10;99.90
3919;DHT22;1974;48.670;8.994;2023-04-24T00:03:28;10.10;99.90
3919;DHT22;1974;48.670;8.994;2023-04-24T00:05:55;10.20;99.90
3919;DHT22;1974;48.670;8.994;2023-04-24T00:08:22;10.20;99.90
3919;DHT22;1974;48.670;8.994;2023-04-24T00:10:49;10.20;99.90
3919;DHT22;1974;48.670;8.994;2023-04-24T00:13:17;10.20;99.90
3919;DHT22;1974;48.670;8.994;2023-04-24T00:15:44;10.20;99.90
3919;DHT22;1974;48.670;8.994;2023-04-24T00:18:12;10.20;99.90
3919;DHT22;1974;48.670;8.994;2023-04-24T00:20:39;10.20;99.90
3919;DHT22;1974;48.670;8.994;2023-04-24T00:23:06;10.20;99.90
3919;DHT22;1974;48.670;8.994;2023-04-24T00:25:32;10.20;99.90
3919;DHT22;1974;48.670;8.994;2023-04-24T00:27:59;10.20;99.90
3919;DHT22;1974;48.670;8.994;2023-04-24T00:30:26;10.20;99.90
3919;DHT22;1974;48.670;8.994;2023-04-24T00:32:53;10.30;99.90
3919;DHT22;1974;48.670;8.994;2023-04-24T00:35:21;10.30;99.90
3919;DHT22;1974;48.670;8.994;2023-04-24T00:37:48;10.30;99.90
3919;DHT22;1974;48.670;8.994;2023-04-24T00:40:16;10.20;99.90
3919;DHT22;1974;48.670;8.994;2023-04-24T00:42:43;10.20;99.90
3919;DHT22;1974;48.670;8.994;2023-04-24T00:45:10;10.30;99.90
3919;DHT22;1974;48.670;8.994;2023-04-24T00:47:38;10.30;99.90
3919;DHT22;1974;48.670;8.994;2023-04-24T00:50:07;10.20;99.90
3919;DHT22;1974;48.670;8.994;2023-04-24T00:52:35;10.20;99.90
3919;DHT22;1974;48.670;8.994;2023-04-24T00:55:02;10.20;99.90
3919;DHT22;1974;48.670;8.994;2023-04-24T00:57:30;10.20;99.90
3919;DHT22;1974;48.670;8.994;2023-04-24T00:59:57;10.30;99.90
3919;DHT22;1974;48.670;8.994;2023-04-24T01:02:24;10.30;99.90
3919;DHT22;1974;48.670;8.994;2023-04-24T01:04:52;10.30;99.90
3919;DHT22;1974;48.670;8.994;2023-04-24T01:07:19;10.30;99.90
3919;DHT22;1974;48.670;8.994;2023-04-24T01:09:48;10.30;99.90
3919;DHT22;1974;48.670;8.994;2023-04-24T01:12:17;10.30;99.90
3919;DHT22;1974;48.670;8.994;2023-04-24T01:14:44;10.30;99.90
3919;DHT22;1974;48.670;8.994;2023-04-24T01:17:11;10.40;99.90
3919;DHT22;1974;48.670;8.994;2023-04-24T01:19:38;10.40;99.90
3919;DHT22;1974;48.670;8.994;2023-04-24T01:22:10;10.40;99.90
3919;DHT22;1974;48.670;8.994;2023-04-24T01:24:37;10.40;99.90
3919;DHT22;1974;48.670;8.994;2023-04-24T01:27:04;10.40;99.90
3919;DHT22;1974;48.670;8.994;2023-04-24T01:29:31;10.40;99.90
3919;DHT22;1974;48.670;8.994;2023-04-24T01:31:57;10.40;99.90
3919;DHT22;1974;48.670;8.994;2023-04-24T01:34:25;10.40;99.90
3919;DHT22;1974;48.670;8.994;2023-04-24T01:36:52;10.30;99.90
3919;DHT22;1974;48.670;8.994;2023-04-24T01:39:20;10.40;99.90
3919;DHT22;1974;48.670;8.994;2023-04-24T01:41:48;10.40;99.90
3919;DHT22;1974;48.670;8.994;2023-04-24T01:44:16;10.40;99.90
3919;DHT22;1974;48.670;8.994;2023-04-24T01:46:42;10.30;99.90
3919;DHT22;1974;48.670;8.994;2023-04-24T01:49:09;10.30;99.90
3919;DHT22;1974;48.670;8.994;2023-04-24T01:51:36;10.20;99.90
3919;DHT22;1974;48.670;8.994;2023-04-24T01:54:03;10.20;99.90
3919;DHT22;1974;48.670;8.994;2023-04-24T01:56:33;10.10;99.90
3919;DHT22;1974;48.670;8.994;2023-04-24T01:59:02;10.00;99.90
3919;DHT22;1974;48.670;8.994;2023-04-24T02:01:33;10.00;99.90
3919;DHT22;1974;48.670;8.994;2023-04-24T02:04:00;9.90;99.90
3919;DHT22;1974;48.670;8.994;2023-04-24T02:06:27;9.90;99.90
3919;DHT22;1974;48.670;8.994;2023-04-24T02:08:54;9.90;99.90
3919;DHT22;1974;48.670;8.994;2023-04-24T02:11:20;9.90;99.90
3919;DHT22;1974;48.670;8.994;2023-04-24T02:13:48;9.90;99.90
3919;DHT22;1974;48.670;8.994;2023-04-24T02:16:15;9.90;99.90
3919;DHT22;1974;48.670;8.994;2023-04-24T02:18:42;9.80;99.90
3919;DHT22;1974;48.670;8.994;2023-04-24T02:21:09;9.80;99.90
3919;DHT22;1974;48.670;8.994;2023-04-24T02:23:36;9.80;99.90
3919;DHT22;1974;48.670;8.994;2023-04-24T02:26:02;9.80;99.90
3919;DHT22;1974;48.670;8.994;2023-04-24T02:28:29;9.80;99.90
3919;DHT22;1974;48.670;8.994;2023-04-24T02:30:57;9.80;99.90
3919;DHT22;1974;48.670;8.994;2023-04-24T02:33:24;9.90;99.90
3919;DHT22;1974;48.670;8.994;2023-04-24T02:35:50;9.90;99.90
3919;DHT22;1974;48.670;8.994;2023-04-24T02:38:17;9.90;99.90
3919;DHT22;1974;48.670;8.994;2023-04-24T02:40:44;9.90;99.90
3919;DHT22;1974;48.670;8.994;2023-04-24T02:43:11;9.90;99.90
3919;DHT22;1974;48.670;8.994;2023-04-24T02:45:37;9.90;99.90
3919;DHT22;1974;48.670;8.994;2023-04-24T02:48:05;9.90;99.90
3919;DHT22;1974;48.670;8.994;2023-04-24T02:50:32;9.90;99.90
3919;DHT22;1974;48.670;8.994;2023-04-24T02:52:59;9.90;99.90
3919;DHT22;1974;48.670;8.994;2023-04-24T02:55:26;9.90;99.90
3919;DHT22;1974;48.670;8.994;2023-04-24T02:57:53;9.90;99.90
3919;DHT22;1974;48.670;8.994;2023-04-24T03:00:20;10.00;99.90
3919;DHT22;1974;48.670;8.994;2023-04-24T03:02:47;10.00;99.90
3919;DHT22;1974;48.670;8.994;2023-04-24T03:05:16;10.00;99.90
3919;DHT22;1974;48.670;8.994;2023-04-24T03:07:43;9.90;99.90
3919;DHT22;1974;48.670;8.994;2023-04-24T03:10:11;9.80;99.90
3919;DHT22;1974;48.670;8.994;2023-04-24T03:12:37;9.80;99.90
3919;DHT22;1974;48.670;8.994;2023-04-24T03:15:05;9.80;99.90
3919;DHT22;1974;48.670;8.994;2023-04-24T03:17:32;9.70;99.90
3919;DHT22;1974;48.670;8.994;2023-04-24T03:19:58;9.70;99.90
3919;DHT22;1974;48.670;8.994;2023-04-24T03:22:26;9.70;99.90
3919;DHT22;1974;48.670;8.994;2023-04-24T03:24:53;9.70;99.90
3919;DHT22;1974;48.670;8.994;2023-04-24T03:27:22;9.80;99.90
3919;DHT22;1974;48.670;8.994;2023-04-24T03:29:49;9.70;99.90
3919;DHT22;1974;48.670;8.994;2023-04-24T03:32:19;9.80;99.90
3919;DHT22;1974;48.670;8.994;2023-04-24T03:34:45;9.80;99.90
3919;DHT22;1974;48.670;8.994;2023-04-24T03:37:12;9.60;99.90
3919;DHT22;1974;48.670;8.994;2023-04-24T03:39:40;9.60;99.90
3919;DHT22;1974;48.670;8.994;2023-04-24T03:42:07;9.50;99.90
3919;DHT22;1974;48.670;8.994;2023-04-24T03:44:34;9.50;99.90
3919;DHT22;1974;48.670;8.994;2023-04-24T03:47:01;9.50;99.90
3919;DHT22;1974;48.670;8.994;2023-04-24T03:49:28;9.40;99.90
3919;DHT22;1974;48.670;8.994;2023-04-24T03:51:55;9.40;99.90
3919;DHT22;1974;48.670;8.994;2023-04-24T03:54:21;9.40;99.90
3919;DHT22;1974;48.670;8.994;2023-04-24T03:56:49;9.40;99.90
3919;DHT22;1974;48.670;8.994;2023-04-24T03:59:16;9.40;99.90
3919;DHT22;1974;48.670;8.994;2023-04-24T04:01:43;9.40;99.90
3919;DHT22;1974;48.670;8.994;2023-04-24T04:04:11;9.40;99.90
3919;DHT22;1974;48.670;8.994;2023-04-24T04:06:38;9.50;99.90
3919;DHT22;1974;48.670;8.994;2023-04-24T04:09:04;9.50;99.90
3919;DHT22;1974;48.670;8.994;2023-04-24T04:11:32;9.50;99.90
3919;DHT22;1974;48.670;8.994;2023-04-24T04:14:00;9.60;99.90
3919;DHT22;1974;48.670;8.994;2023-04-24T04:16:27;9.60;99.90
3919;DHT22;1974;48.670;8.994;2023-04-24T04:18:54;9.60;99.90
3919;DHT22;1974;48.670;8.994;2023-04-24T04:21:21;9.70;99.90
3919;DHT22;1974;48.670;8.994;2023-04-24T04:23:48;9.70;99.90
3919;DHT22;1974;48.670;8.994;2023-04-24T04:26:14;9.80;99.90
3919;DHT22;1974;48.670;8.994;2023-04-24T04:28:41;9.80;99.90
3919;DHT22;1974;48.670;8.994;2023-04-24T04:31:11;9.90;99.90
3919;DHT22;1974;48.670;8.994;2023-04-24T04:33:38;9.70;99.90
3919;DHT22;1974;48.670;8.994;2023-04-24T04:36:05;9.60;99.90
3919;DHT22;1974;48.670;8.994;2023-04-24T04:38:32;9.50;99.90
3919;DHT22;1974;48.670;8.994;2023-04-24T04:41:00;9.40;99.90
3919;DHT22;1974;48.670;8.994;2023-04-24T04:43:27;9.20;99.90
3919;DHT22;1974;48.670;8.994;2023-04-24T04:45:54;9.10;99.90
3919;DHT22;1974;48.670;8.994;2023-04-24T04:48:22;9.00;99.90
3919;DHT22;1974;48.670;8.994;2023-04-24T04:50:49;8.90;99.90
3919;DHT22;1974;48.670;8.994;2023-04-24T04:53:16;8.80;99.90
3919;DHT22;1974;48.670;8.994;2023-04-24T04:55:43;8.80;99.90
3919;DHT22;1974;48.670;8.994;2023-04-24T04:58:09;8.70;99.90
3919;DHT22;1974;48.670;8.994;2023-04-24T05:00:36;8.70;99.90
3919;DHT22;1974;48.670;8.994;2023-04-24T05:03:03;8.70;99.90
3919;DHT22;1974;48.670;8.994;2023-04-24T05:05:31;8.60;99.90
3919;DHT22;1974;48.670;8.994;2023-04-24T05:07:58;8.60;99.90
3919;DHT22;1974;48.670;8.994;2023-04-24T05:10:25;8.60;99.90
3919;DHT22;1974;48.670;8.994;2023-04-24T05:12:51;8.60;99.90
3919;DHT22;1974;48.670;8.994;2023-04-24T05:15:18;8.60;99.90
3919;DHT22;1974;48.670;8.994;2023-04-24T05:17:45;8.70;99.90
3919;DHT22;1974;48.670;8.994;2023-04-24T05:20:11;8.70;99.90
3919;DHT22;1974;48.670;8.994;2023-04-24T05:22:40;8.70;99.90
3919;DHT22;1974;48.670;8.994;2023-04-24T05:25:07;8.70;99.90
3919;DHT22;1974;48.670;8.994;2023-04-24T05:27:34;8.80;99.90
3919;DHT22;1974;48.670;8.994;2023-04-24T05:30:00;8.80;99.90
3919;DHT22;1974;48.670;8.994;2023-04-24T05:32:27;8.80;99.90
3919;DHT22;1974;48.670;8.994;2023-04-24T05:34:54;8.90;99.90
3919;DHT22;1974;48.670;8.994;2023-04-24T05:37:20;9.00;99.90
3919;DHT22;1974;48.670;8.994;2023-04-24T05:39:48;9.10;99.90
3919;DHT22;1974;48.670;8.994;2023-04-24T05:42:15;9.10;99.90
3919;DHT22;1974;48.670;8.994;2023-04-24T05:44:42;9.20;99.90
3919;DHT22;1974;48.670;8.994;2023-04-24T05:47:09;9.20;99.90
3919;DHT22;1974;48.670;8.994;2023-04-24T05:49:35;9.20;99.90
3919;DHT22;1974;48.670;8.994;2023-04-24T05:52:02;9.20;99.90
3919;DHT22;1974;48.670;8.994;2023-04-24T05:54:30;9.20;99.90
3919;DHT22;1974;48.670;8.994;2023-04-24T05:56:58;9.20;99.90
3919;DHT22;1974;48.670;8.994;2023-04-24T05:59:26;9.20;99.90
3919;DHT22;1974;48.670;8.994;2023-04-24T06:01:53;9.20;99.90
3919;DHT22;1974;48.670;8.994;2023-04-24T06:04:20;9.20;99.90
3919;DHT22;1974;48.670;8.994;2023-04-24T06:06:47;9.20;99.90
3919;DHT22;1974;48.670;8.994;2023-04-24T06:09:16;9.30;99.90
3919;DHT22;1974;48.670;8.994;2023-04-24T06:11:43;9.40;99.90
3919;DHT22;1974;48.670;8.994;2023-04-24T06:14:11;9.70;99.90
3919;DHT22;1974;48.670;8.994;2023-04-24T06:16:38;10.20;99.90
3919;DHT22;1974;48.670;8.994;2023-04-24T06:19:05;10.70;99.90
3919;DHT22;1974;48.670;8.994;2023-04-24T06:21:32;11.20;99.90
3919;DHT22;1974;48.670;8.994;2023-04-24T06:23:58;11.60;99.90
3919;DHT22;1974;48.670;8.994;2023-04-24T06:26:25;12.10;99.90
3919;DHT22;1974;48.670;8.994;2023-04-24T06:28:52;12.50;99.90
3919;DHT22;1974;48.670;8.994;2023-04-24T06:31:21;13.10;99.90
3919;DHT22;1974;48.670;8.994;2023-04-24T06:33:48;13.40;99.90
3919;DHT22;1974;48.670;8.994;2023-04-24T06:36:15;13.40;99.90
3919;DHT22;1974;48.670;8.994;2023-04-24T06:38:42;13.30;99.90
3919;DHT22;1974;48.670;8.994;2023-04-24T06:41:09;13.20;99.90
3919;DHT22;1974;48.670;8.994;2023-04-24T06:43:36;13.60;99.90
3919;DHT22;1974;48.670;8.994;2023-04-24T06:46:03;14.20;99.90
3919;DHT22;1974;48.670;8.994;2023-04-24T06:48:31;14.70;99.90
3919;DHT22;1974;48.670;8.994;2023-04-24T06:50:58;14.80;99.90
3919;DHT22;1974;48.670;8.994;2023-04-24T06:53:24;14.90;99.90
3919;DHT22;1974;48.670;8.994;2023-04-24T06:55:51;14.70;99.90
3919;DHT22;1974;48.670;8.994;2023-04-24T06:58:18;14.30;99.90
3919;DHT22;1974;48.670;8.994;2023-04-24T07:00:45;13.90;99.90
3919;DHT22;1974;48.670;8.994;2023-04-24T07:03:12;13.50;99.90
3919;DHT22;1974;48.670;8.994;2023-04-24T07:05:40;13.20;99.90
3919;DHT22;1974;48.670;8.994;2023-04-24T07:08:07;12.80;99.90
3919;DHT22;1974;48.670;8.994;2023-04-24T07:10:36;12.40;99.90
3919;DHT22;1974;48.670;8.994;2023-04-24T07:13:03;12.10;99.90
3919;DHT22;1974;48.670;8.994;2023-04-24T07:15:30;11.80;99.90
3919;DHT22;1974;48.670;8.994;2023-04-24T07:17:57;11.40;99.90
3919;DHT22;1974;48.670;8.994;2023-04-24T07:20:24;11.10;99.90
3919;DHT22;1974;48.670;8.994;2023-04-24T07:22:52;11.00;99.90
3919;DHT22;1974;48.670;8.994;2023-04-24T07:25:20;11.10;99.90
3919;DHT22;1974;48.670;8.994;2023-04-24T07:27:46;11.70;99.90
3919;DHT22;1974;48.670;8.994;2023-04-24T07:30:14;13.00;99.90
3919;DHT22;1974;48.670;8.994;2023-04-24T07:32:41;14.90;99.90
3919;DHT22;1974;48.670;8.994;2023-04-24T07:35:08;17.10;99.90
3919;DHT22;1974;48.670;8.994;2023-04-24T07:37:35;19.10;99.90
3919;DHT22;1974;48.670;8.994;2023-04-24T07:40:04;20.80;99.90
3919;DHT22;1974;48.670;8.994;2023-04-24T07:42:31;22.10;99.90
3919;DHT22;1974;48.670;8.994;2023-04-24T07:44:59;23.00;99.90
3919;DHT22;1974;48.670;8.994;2023-04-24T07:47:26;23.50;97.30
3919;DHT22;1974;48.670;8.994;2023-04-24T07:49:53;22.90;97.20
3919;DHT22;1974;48.670;8.994;2023-04-24T07:52:20;21.70;96.80
3919;DHT22;1974;48.670;8.994;2023-04-24T07:54:47;21.00;97.70
3919;DHT22;1974;48.670;8.994;2023-04-24T07:57:16;20.40;95.00
3919;DHT22;1974;48.670;8.994;2023-04-24T07:59:43;20.40;96.00
3919;DHT22;1974;48.670;8.994;2023-04-24T08:02:09;19.50;96.20
3919;DHT22;1974;48.670;8.994;2023-04-24T08:04:37;19.30;97.70
3919;DHT22;1974;48.670;8.994;2023-04-24T08:07:03;19.50;98.50
3919;DHT22;1974;48.670;8.994;2023-04-24T08:09:30;19.70;98.40
3919;DHT22;1974;48.670;8.994;2023-04-24T08:11:57;19.50;98.20
3919;DHT22;1974;48.670;8.994;2023-04-24T08:14:25;18.90;96.80
3919;DHT22;1974;48.670;8.994;2023-04-24T08:16:53;18.50;98.60
3919;DHT22;1974;48.670;8.994;2023-04-24T08:19:20;18.80;97.20
3919;DHT22;1974;48.670;8.994;2023-04-24T08:21:47;19.20;97.60
3919;DHT22;1974;48.670;8.994;2023-04-24T08:24:13;20.10;96.00
3919;DHT22;1974;48.670;8.994;2023-04-24T08:26:40;21.40;95.70
3919;DHT22;1974;48.670;8.994;2023-04-24T08:29:07;22.70;94.80
3919;DHT22;1974;48.670;8.994;2023-04-24T08:31:35;23.10;90.00
3919;DHT22;1974;48.670;8.994;2023-04-24T08:34:02;22.80;90.00
3919;DHT22;1974;48.670;8.994;2023-04-24T08:36:28;21.10;86.20
3919;DHT22;1974;48.670;8.994;2023-04-24T08:38:56;19.40;90.10
3919;DHT22;1974;48.670;8.994;2023-04-24T08:41:23;18.10;91.00
3919;DHT22;1974;48.670;8.994;2023-04-24T08:43:52;17.30;92.70
3919;DHT22;1974;48.670;8.994;2023-04-24T08:46:19;16.60;94.60
3919;DHT22;1974;48.670;8.994;2023-04-24T08:48:48;16.00;96.30
3919;DHT22;1974;48.670;8.994;2023-04-24T08:51:16;15.80;96.70
3919;DHT22;1974;48.670;8.994;2023-04-24T08:53:44;15.50;98.00
3919;DHT22;1974;48.670;8.994;2023-04-24T08:56:11;15.30;97.80
3919;DHT22;1974;48.670;8.994;2023-04-24T08:58:39;15.10;98.30
3919;DHT22;1974;48.670;8.994;2023-04-24T09:01:06;15.60;99.10
3919;DHT22;1974;48.670;8.994;2023-04-24T09:03:33;16.40;96.80
3919;DHT22;1974;48.670;8.994;2023-04-24T09:06:02;17.10;96.10
3919;DHT22;1974;48.670;8.994;2023-04-24T09:08:30;17.80;95.40
3919;DHT22;1974;48.670;8.994;2023-04-24T09:10:58;17.90;94.90
3919;DHT22;1974;48.670;8.994;2023-04-24T09:13:27;18.20;94.90
3919;DHT22;1974;48.670;8.994;2023-04-24T09:15:54;18.40;94.50
3919;DHT22;1974;48.670;8.994;2023-04-24T09:18:22;18.90;94.10
3919;DHT22;1974;48.670;8.994;2023-04-24T09:21:02;19.40;92.20
3919;DHT22;1974;48.670;8.994;2023-04-24T09:23:29;19.70;90.40
3919;DHT22;1974;48.670;8.994;2023-04-24T09:25:57;19.40;85.90
3919;DHT22;1974;48.670;8.994;2023-04-24T09:28:26;19.10;83.90
3919;DHT22;1974;48.670;8.994;2023-04-24T09:31:04;18.80;84.10
3919;DHT22;1974;48.670;8.994;2023-04-24T09:33:31;18.50;86.00
3919;DHT22;1974;48.670;8.994;2023-04-24T09:35:57;18.20;86.80
3919;DHT22;1974;48.670;8.994;2023-04-24T09:38:32;18.20;87.40
3919;DHT22;1974;48.670;8.994;2023-04-24T09:41:00;18.30;86.90
3919;DHT22;1974;48.670;8.994;2023-04-24T09:43:28;18.70;86.50
3919;DHT22;1974;48.670;8.994;2023-04-24T09:45:56;19.50;85.30
3919;DHT22;1974;48.670;8.994;2023-04-24T09:48:31;19.60;81.80
3919;DHT22;1974;48.670;8.994;2023-04-24T09:50:58;19.20;83.00
3919;DHT22;1974;48.670;8.994;2023-04-24T09:53:26;18.70;83.80
3919;DHT22;1974;48.670;8.994;2023-04-24T09:55:54;18.00;84.20
3919;DHT22;1974;48.670;8.994;2023-04-24T09:58:25;17.50;85.00
3919;DHT22;1974;48.670;8.994;2023-04-24T10:00:54;17.20;85.50
3919;DHT22;1974;48.670;8.994;2023-04-24T10:03:24;17.50;86.60
3919;DHT22;1974;48.670;8.994;2023-04-24T10:05:52;17.70;86.40
3919;DHT22;1974;48.670;8.994;2023-04-24T10:08:20;17.70;82.80
3919;DHT22;1974;48.670;8.994;2023-04-24T10:10:47;17.70;83.10
3919;DHT22;1974;48.670;8.994;2023-04-24T10:13:15;17.90;85.00
3919;DHT22;1974;48.670;8.994;2023-04-24T10:15:42;18.40;85.60
3919;DHT22;1974;48.670;8.994;2023-04-24T10:18:10;18.40;83.50
3919;DHT22;1974;48.670;8.994;2023-04-24T10:20:40;18.10;79.00
3919;DHT22;1974;48.670;8.994;2023-04-24T10:23:07;17.80;82.10
3919;DHT22;1974;48.670;8.994;2023-04-24T10:25:35;17.50;83.20
3919;DHT22;1974;48.670;8.994;2023-04-24T10:28:03;17.10;83.90
3919;DHT22;1974;48.670;8.994;2023-04-24T10:30:32;16.80;84.90
3919;DHT22;1974;48.670;8.994;2023-04-24T10:33:00;16.50;85.60
3919;DHT22;1974;48.670;8.994;2023-04-24T10:35:30;16.60;88.40
3919;DHT22;1974;48.670;8.994;2023-04-24T10:38:01;17.10;87.50
3919;DHT22;1974;48.670;8.994;2023-04-24T10:40:31;17.20;86.80
3919;DHT22;1974;48.670;8.994;2023-04-24T10:42:59;17.20;88.50
3919;DHT22;1974;48.670;8.994;2023-04-24T10:45:28;17.20;87.10
3919;DHT22;1974;48.670;8.994;2023-04-24T10:48:01;17.00;85.90
3919;DHT22;1974;48.670;8.994;2023-04-24T10:50:29;17.00;88.00
3919;DHT22;1974;48.670;8.994;2023-04-24T10:53:05;16.90;85.90
3919;DHT22;1974;48.670;8.994;2023-04-24T10:55:50;16.60;86.00
3919;DHT22;1974;48.670;8.994;2023-04-24T10:58:22;16.10;86.10
3919;DHT22;1974;48.670;8.994;2023-04-24T11:00:56;16.00;87.70
3919;DHT22;1974;48.670;8.994;2023-04-24T11:03:26;16.00;88.90
3919;DHT22;1974;48.670;8.994;2023-04-24T11:05:57;16.10;89.80
3919;DHT22;1974;48.670;8.994;2023-04-24T11:08:29;16.20;89.60
3919;DHT22;1974;48.670;8.994;2023-04-24T11:10:59;16.40;88.90
3919;DHT22;1974;48.670;8.994;2023-04-24T11:13:31;16.50;89.60
3919;DHT22;1974;48.670;8.994;2023-04-24T11:16:15;16.20;89.60
3919;DHT22;1974;48.670;8.994;2023-04-24T11:18:50;15.90;90.70
3919;DHT22;1974;48.670;8.994;2023-04-24T11:21:19;15.70;91.00
3919;DHT22;1974;48.670;8.994;2023-04-24T11:23:46;15.60;91.10
3919;DHT22;1974;48.670;8.994;2023-04-24T11:26:18;15.30;91.10
3919;DHT22;1974;48.670;8.994;2023-04-24T11:28:46;14.80;90.50
3919;DHT22;1974;48.670;8.994;2023-04-24T11:31:35;14.50;91.80
3919;DHT22;1974;48.670;8.994;2023-04-24T11:34:09;14.20;92.20
3919;DHT22;1974;48.670;8.994;2023-04-24T11:36:36;14.10;93.10
3919;DHT22;1974;48.670;8.994;2023-04-24T11:39:03;14.00;92.20
3919;DHT22;1974;48.670;8.994;2023-04-24T11:41:30;14.10;92.90
3919;DHT22;1974;48.670;8.994;2023-04-24T11:43:57;14.20;92.80
3919;DHT22;1974;48.670;8.994;2023-04-24T11:46:27;14.00;92.80
3919;DHT22;1974;48.670;8.994;2023-04-24T11:48:54;14.10;93.80
3919;DHT22;1974;48.670;8.994;2023-04-24T11:51:22;14.10;93.40
3919;DHT22;1974;48.670;8.994;2023-04-24T11:53:49;14.30;94.10
3919;DHT22;1974;48.670;8.994;2023-04-24T11:56:18;14.60;94.80
3919;DHT22;1974;48.670;8.994;2023-04-24T11:58:45;14.70;93.00
3919;DHT22;1974;48.670;8.994;2023-04-24T12:01:12;14.60;92.80
3919;DHT22;1974;48.670;8.994;2023-04-24T12:03:39;14.40;92.70
3919;DHT22;1974;48.670;8.994;2023-04-24T12:06:09;14.10;93.30
3919;DHT22;1974;48.670;8.994;2023-04-24T12:08:38;13.90;93.30
3919;DHT22;1974;48.670;8.994;2023-04-24T12:11:06;13.70;93.80
3919;DHT22;1974;48.670;8.994;2023-04-24T12:13:34;13.60;94.40
3919;DHT22;1974;48.670;8.994;2023-04-24T12:16:04;13.70;94.20
3919;DHT22;1974;48.670;8.994;2023-04-24T12:18:31;13.70;94.90
3919;DHT22;1974;48.670;8.994;2023-04-24T12:21:18;13.60;94.50
3919;DHT22;1974;48.670;8.994;2023-04-24T12:23:47;13.70;94.80
3919;DHT22;1974;48.670;8.994;2023-04-24T12:26:17;14.00;95.30
3919;DHT22;1974;48.670;8.994;2023-04-24T12:28:46;14.20;94.80
3919;DHT22;1974;48.670;8.994;2023-04-24T12:31:13;14.10;94.30
3919;DHT22;1974;48.670;8.994;2023-04-24T12:33:40;14.10;94.90
3919;DHT22;1974;48.670;8.994;2023-04-24T12:36:10;14.20;94.00
3919;DHT22;1974;48.670;8.994;2023-04-24T12:38:38;14.30;94.40
3919;DHT22;1974;48.670;8.994;2023-04-24T12:41:09;14.50;95.40
3919;DHT22;1974;48.670;8.994;2023-04-24T12:43:36;14.70;94.00
3919;DHT22;1974;48.670;8.994;2023-04-24T12:46:03;14.70;94.40
3919;DHT22;1974;48.670;8.994;2023-04-24T12:48:31;14.70;94.60
3919;DHT22;1974;48.670;8.994;2023-04-24T12:50:57;14.80;94.10
3919;DHT22;1974;48.670;8.994;2023-04-24T12:53:27;14.70;94.30
3919;DHT22;1974;48.670;8.994;2023-04-24T12:55:55;14.60;94.90
3919;DHT22;1974;48.670;8.994;2023-04-24T12:58:23;14.50;94.00
3919;DHT22;1974;48.670;8.994;2023-04-24T13:00:50;14.50;94.80
3919;DHT22;1974;48.670;8.994;2023-04-24T13:03:18;14.50;94.80
3919;DHT22;1974;48.670;8.994;2023-04-24T13:05:47;14.40;94.80
3919;DHT22;1974;48.670;8.994;2023-04-24T13:08:14;14.40;94.50
3919;DHT22;1974;48.670;8.994;2023-04-24T13:10:40;14.40;95.00
3919;DHT22;1974;48.670;8.994;2023-04-24T13:13:08;14.40;94.10
3919;DHT22;1974;48.670;8.994;2023-04-24T13:15:36;14.30;94.80
3919;DHT22;1974;48.670;8.994;2023-04-24T13:18:03;14.20;94.60
3919;DHT22;1974;48.670;8.994;2023-04-24T13:20:30;14.00;94.70
3919;DHT22;1974;48.670;8.994;2023-04-24T13:22:57;13.80;96.30
3919;DHT22;1974;48.670;8.994;2023-04-24T13:25:23;13.40;97.20
3919;DHT22;1974;48.670;8.994;2023-04-24T13:27:50;13.10;98.30
3919;DHT22;1974;48.670;8.994;2023-04-24T13:30:17;12.90;98.80
3919;DHT22;1974;48.670;8.994;2023-04-24T13:32:45;12.70;97.40
3919;DHT22;1974;48.670;8.994;2023-04-24T13:35:12;12.60;98.90
3919;DHT22;1974;48.670;8.994;2023-04-24T13:37:39;12.60;98.50
3919;DHT22;1974;48.670;8.994;2023-04-24T13:40:06;12.50;98.20
3919;DHT22;1974;48.670;8.994;2023-04-24T13:42:33;12.30;98.00
3919;DHT22;1974;48.670;8.994;2023-04-24T13:45:00;12.20;99.30
3919;DHT22;1974;48.670;8.994;2023-04-24T13:47:27;12.20;98.80
3919;DHT22;1974;48.670;8.994;2023-04-24T13:49:55;12.40;99.10
3919;DHT22;1974;48.670;8.994;2023-04-24T13:52:21;12.60;99.00
3919;DHT22;1974;48.670;8.994;2023-04-24T13:54:48;12.90;98.90
3919;DHT22;1974;48.670;8.994;2023-04-24T13:57:15;13.10;98.70
3919;DHT22;1974;48.670;8.994;2023-04-24T13:59:42;13.20;97.70
3919;DHT22;1974;48.670;8.994;2023-04-24T14:02:09;13.30;97.20
3919;DHT22;1974;48.670;8.994;2023-04-24T14:04:35;13.20;97.50
3919;DHT22;1974;48.670;8.994;2023-04-24T14:07:03;13.10;97.80
3919;DHT22;1974;48.670;8.994;2023-04-24T14:09:30;13.10;97.90
3919;DHT22;1974;48.670;8.994;2023-04-24T14:11:57;12.90;98.20
3919;DHT22;1974;48.670;8.994;2023-04-24T14:14:24;12.80;98.50
3919;DHT22;1974;48.670;8.994;2023-04-24T14:16:50;12.60;99.90
3919;DHT22;1974;48.670;8.994;2023-04-24T14:19:19;12.40;99.90
3919;DHT22;1974;48.670;8.994;2023-04-24T14:21:46;12.10;99.90
3919;DHT22;1974;48.670;8.994;2023-04-24T14:24:14;11.80;99.90
3919;DHT22;1974;48.670;8.994;2023-04-24T14:26:41;11.80;99.90
3919;DHT22;1974;48.670;8.994;2023-04-24T14:29:07;11.90;99.90
3919;DHT22;1974;48.670;8.994;2023-04-24T14:31:34;12.00;99.90
3919;DHT22;1974;48.670;8.994;2023-04-24T14:34:01;12.20;99.90
3919;DHT22;1974;48.670;8.994;2023-04-24T14:36:27;12.30;99.90
3919;DHT22;1974;48.670;8.994;2023-04-24T14:38:55;12.50;99.90
3919;DHT22;1974;48.670;8.994;2023-04-24T14:41:23;12.60;99.90
3919;DHT22;1974;48.670;8.994;2023-04-24T14:43:50;12.60;99.90
3919;DHT22;1974;48.670;8.994;2023-04-24T14:46:17;12.70;99.90
3919;DHT22;1974;48.670;8.994;2023-04-24T14:48:44;12.90;99.90
3919;DHT22;1974;48.670;8.994;2023-04-24T14:51:10;13.10;99.90
3919;DHT22;1974;48.670;8.994;2023-04-24T14:53:37;13.00;99.90
3919;DHT22;1974;48.670;8.994;2023-04-24T14:56:04;13.00;99.90
3919;DHT22;1974;48.670;8.994;2023-04-24T14:58:32;13.00;99.90
3919;DHT22;1974;48.670;8.994;2023-04-24T15:00:59;13.00;99.90
3919;DHT22;1974;48.670;8.994;2023-04-24T15:03:26;13.00;99.90
3919;DHT22;1974;48.670;8.994;2023-04-24T15:05:53;13.10;99.90
3919;DHT22;1974;48.670;8.994;2023-04-24T15:08:20;13.20;99.90
3919;DHT22;1974;48.670;8.994;2023-04-24T15:10:47;13.10;99.90
3919;DHT22;1974;48.670;8.994;2023-04-24T15:13:13;13.10;99.90
3919;DHT22;1974;48.670;8.994;2023-04-24T15:15:42;13.00;99.90
3919;DHT22;1974;48.670;8.994;2023-04-24T15:18:09;12.80;99.90
3919;DHT22;1974;48.670;8.994;2023-04-24T15:20:37;12.80;99.90
3919;DHT22;1974;48.670;8.994;2023-04-24T15:23:05;12.70;99.90
3919;DHT22;1974;48.670;8.994;2023-04-24T15:25:32;12.50;99.90
3919;DHT22;1974;48.670;8.994;2023-04-24T15:27:58;12.50;99.90
3919;DHT22;1974;48.670;8.994;2023-04-24T15:30:26;12.30;99.90
3919;DHT22;1974;48.670;8.994;2023-04-24T15:32:54;12.30;99.90
3919;DHT22;1974;48.670;8.994;2023-04-24T15:35:20;12.30;99.90
3919;DHT22;1974;48.670;8.994;2023-04-24T15:37:48;12.30;99.90
3919;DHT22;1974;48.670;8.994;2023-04-24T15:40:15;12.40;99.90
3919;DHT22;1974;48.670;8.994;2023-04-24T15:42:42;12.50;99.90
3919;DHT22;1974;48.670;8.994;2023-04-24T15:45:10;12.50;99.90
3919;DHT22;1974;48.670;8.994;2023-04-24T15:47:37;12.50;99.90
3919;DHT22;1974;48.670;8.994;2023-04-24T15:50:06;12.60;99.90
3919;DHT22;1974;48.670;8.994;2023-04-24T15:52:35;12.70;99.90
3919;DHT22;1974;48.670;8.994;2023-04-24T15:55:03;12.70;99.90
3919;DHT22;1974;48.670;8.994;2023-04-24T15:57:29;12.80;99.90
3919;DHT22;1974;48.670;8.994;2023-04-24T15:59:56;12.80;99.90
3919;DHT22;1974;48.670;8.994;2023-04-24T16:02:23;12.90;99.90
3919;DHT22;1974;48.670;8.994;2023-04-24T16:04:50;12.80;99.90
3919;DHT22;1974;48.670;8.994;2023-04-24T16:07:18;12.80;99.90